sensor_id;sensor_type;location;lat;lon;timestamp;P1;durP1;ratioP1;P2;durP2;ratioP2
52984;SDS011;40499;47.830;19.026;2022-12-17T00:01:27;117.20;;;43.38;;
52984;SDS011;40499;47.830;19.026;2022-12-17T00:04:11;94.70;;;35.50;;
52984;SDS011;40499;47.830;19.026;2022-12-17T00:06:55;111.22;;;43.15;;
52984;SDS011;40499;47.830;19.026;2022-12-17T00:09:39;115.53;;;44.03;;
52984;SDS011;40499;47.830;19.026;2022-12-17T00:12:22;115.50;;;43.63;;
52984;SDS011;40499;47.830;19.026;2022-12-17T00:15:07;114.18;;;43.80;;
52984;SDS011;40499;47.830;19.026;2022-12-17T00:17:50;115.80;;;43.85;;
52984;SDS011;40499;47.830;19.026;2022-12-17T00:20:34;110.05;;;43.90;;
52984;SDS011;40499;47.830;19.026;2022-12-17T00:23:18;108.75;;;40.92;;
52984;SDS011;40499;47.830;19.026;2022-12-17T00:26:02;103.40;;;41.90;;
52984;SDS011;40499;47.830;19.026;2022-12-17T00:28:46;121.05;;;45.83;;
52984;SDS011;40499;47.830;19.026;2022-12-17T00:31:30;121.97;;;44.53;;
52984;SDS011;40499;47.830;19.026;2022-12-17T00:34:14;106.93;;;42.40;;
52984;SDS011;40499;47.830;19.026;2022-12-17T00:36:58;115.38;;;45.00;;
52984;SDS011;40499;47.830;19.026;2022-12-17T00:39:42;66.88;;;30.92;;
52984;SDS011;40499;47.830;19.026;2022-12-17T00:42:26;60.20;;;23.80;;
52984;SDS011;40499;47.830;19.026;2022-12-17T00:45:10;56.25;;;24.63;;
52984;SDS011;40499;47.830;19.026;2022-12-17T00:47:54;83.75;;;35.08;;
52984;SDS011;40499;47.830;19.026;2022-12-17T00:50:38;99.25;;;39.47;;
52984;SDS011;40499;47.830;19.026;2022-12-17T00:53:22;88.05;;;38.72;;
52984;SDS011;40499;47.830;19.026;2022-12-17T00:56:06;91.50;;;36.53;;
52984;SDS011;40499;47.830;19.026;2022-12-17T00:59:10;75.07;;;33.72;;
52984;SDS011;40499;47.830;19.026;2022-12-17T01:01:53;96.38;;;42.83;;
52984;SDS011;40499;47.830;19.026;2022-12-17T01:04:37;88.47;;;35.78;;
52984;SDS011;40499;47.830;19.026;2022-12-17T01:07:21;124.32;;;46.05;;
52984;SDS011;40499;47.830;19.026;2022-12-17T01:10:05;96.47;;;36.28;;
52984;SDS011;40499;47.830;19.026;2022-12-17T01:12:49;114.32;;;42.03;;
52984;SDS011;40499;47.830;19.026;2022-12-17T01:15:33;87.90;;;36.00;;
52984;SDS011;40499;47.830;19.026;2022-12-17T01:18:17;72.38;;;28.48;;
52984;SDS011;40499;47.830;19.026;2022-12-17T01:21:02;112.35;;;40.53;;
52984;SDS011;40499;47.830;19.026;2022-12-17T01:23:45;109.97;;;41.58;;
52984;SDS011;40499;47.830;19.026;2022-12-17T01:26:29;109.15;;;42.40;;
52984;SDS011;40499;47.830;19.026;2022-12-17T01:29:13;117.93;;;45.03;;
52984;SDS011;40499;47.830;19.026;2022-12-17T01:31:57;111.63;;;43.50;;
52984;SDS011;40499;47.830;19.026;2022-12-17T01:34:41;85.05;;;33.25;;
52984;SDS011;40499;47.830;19.026;2022-12-17T01:37:33;88.55;;;36.30;;
52984;SDS011;40499;47.830;19.026;2022-12-17T01:40:16;83.10;;;37.17;;
52984;SDS011;40499;47.830;19.026;2022-12-17T01:43:00;87.22;;;35.03;;
52984;SDS011;40499;47.830;19.026;2022-12-17T01:45:46;73.53;;;33.70;;
52984;SDS011;40499;47.830;19.026;2022-12-17T01:48:41;84.00;;;33.47;;
52984;SDS011;40499;47.830;19.026;2022-12-17T01:51:25;64.85;;;25.95;;
52984;SDS011;40499;47.830;19.026;2022-12-17T01:54:09;89.40;;;45.00;;
52984;SDS011;40499;47.830;19.026;2022-12-17T01:56:54;49.20;;;21.85;;
52984;SDS011;40499;47.830;19.026;2022-12-17T01:59:46;86.37;;;34.87;;
52984;SDS011;40499;47.830;19.026;2022-12-17T02:02:32;90.13;;;34.67;;
52984;SDS011;40499;47.830;19.026;2022-12-17T02:05:17;114.30;;;37.60;;
52984;SDS011;40499;47.830;19.026;2022-12-17T02:08:22;117.07;;;46.35;;
52984;SDS011;40499;47.830;19.026;2022-12-17T02:14:25;108.10;;;41.15;;
52984;SDS011;40499;47.830;19.026;2022-12-17T02:17:15;109.78;;;42.80;;
52984;SDS011;40499;47.830;19.026;2022-12-17T02:26:07;117.60;;;43.47;;
52984;SDS011;40499;47.830;19.026;2022-12-17T02:28:47;68.70;;;27.90;;
52984;SDS011;40499;47.830;19.026;2022-12-17T02:31:34;73.72;;;30.52;;
52984;SDS011;40499;47.830;19.026;2022-12-17T02:34:18;115.28;;;43.20;;
52984;SDS011;40499;47.830;19.026;2022-12-17T02:37:02;113.50;;;41.65;;
52984;SDS011;40499;47.830;19.026;2022-12-17T02:39:46;115.53;;;41.00;;
52984;SDS011;40499;47.830;19.026;2022-12-17T02:42:29;94.18;;;35.45;;
52984;SDS011;40499;47.830;19.026;2022-12-17T02:45:14;86.32;;;31.05;;
52984;SDS011;40499;47.830;19.026;2022-12-17T02:47:58;93.70;;;34.58;;
52984;SDS011;40499;47.830;19.026;2022-12-17T02:50:43;92.93;;;46.87;;
52984;SDS011;40499;47.830;19.026;2022-12-17T02:53:27;65.78;;;27.67;;
52984;SDS011;40499;47.830;19.026;2022-12-17T02:56:11;102.07;;;40.38;;
52984;SDS011;40499;47.830;19.026;2022-12-17T02:58:55;92.53;;;37.28;;
52984;SDS011;40499;47.830;19.026;2022-12-17T03:01:39;62.53;;;24.33;;
52984;SDS011;40499;47.830;19.026;2022-12-17T03:04:23;100.00;;;36.25;;
52984;SDS011;40499;47.830;19.026;2022-12-17T03:07:07;67.40;;;27.58;;
52984;SDS011;40499;47.830;19.026;2022-12-17T03:09:51;92.10;;;32.28;;
52984;SDS011;40499;47.830;19.026;2022-12-17T03:12:35;99.30;;;37.80;;
52984;SDS011;40499;47.830;19.026;2022-12-17T03:15:19;68.32;;;24.40;;
52984;SDS011;40499;47.830;19.026;2022-12-17T03:18:03;44.97;;;22.42;;
52984;SDS011;40499;47.830;19.026;2022-12-17T03:20:50;70.72;;;28.48;;
52984;SDS011;40499;47.830;19.026;2022-12-17T03:23:34;76.10;;;30.80;;
52984;SDS011;40499;47.830;19.026;2022-12-17T03:26:18;73.80;;;33.67;;
52984;SDS011;40499;47.830;19.026;2022-12-17T03:29:03;68.72;;;26.23;;
52984;SDS011;40499;47.830;19.026;2022-12-17T03:31:47;69.68;;;28.08;;
52984;SDS011;40499;47.830;19.026;2022-12-17T03:34:30;77.30;;;29.75;;
52984;SDS011;40499;47.830;19.026;2022-12-17T03:37:14;64.80;;;28.83;;
52984;SDS011;40499;47.830;19.026;2022-12-17T03:39:58;58.45;;;28.63;;
52984;SDS011;40499;47.830;19.026;2022-12-17T03:42:42;53.72;;;23.38;;
52984;SDS011;40499;47.830;19.026;2022-12-17T03:45:26;89.45;;;36.78;;
52984;SDS011;40499;47.830;19.026;2022-12-17T03:48:11;94.78;;;35.92;;
52984;SDS011;40499;47.830;19.026;2022-12-17T03:50:56;60.60;;;22.73;;
52984;SDS011;40499;47.830;19.026;2022-12-17T03:53:40;92.82;;;36.50;;
52984;SDS011;40499;47.830;19.026;2022-12-17T03:56:24;74.38;;;28.52;;
52984;SDS011;40499;47.830;19.026;2022-12-17T03:59:08;82.93;;;34.50;;
52984;SDS011;40499;47.830;19.026;2022-12-17T04:01:52;74.00;;;33.60;;
52984;SDS011;40499;47.830;19.026;2022-12-17T04:04:36;81.05;;;32.30;;
52984;SDS011;40499;47.830;19.026;2022-12-17T04:07:40;79.88;;;32.63;;
52984;SDS011;40499;47.830;19.026;2022-12-17T04:10:24;73.20;;;30.75;;
52984;SDS011;40499;47.830;19.026;2022-12-17T04:13:08;60.65;;;24.55;;
52984;SDS011;40499;47.830;19.026;2022-12-17T04:15:51;75.47;;;28.45;;
52984;SDS011;40499;47.830;19.026;2022-12-17T04:18:35;92.53;;;34.80;;
52984;SDS011;40499;47.830;19.026;2022-12-17T04:21:19;67.50;;;24.58;;
52984;SDS011;40499;47.830;19.026;2022-12-17T04:24:03;80.53;;;37.67;;
52984;SDS011;40499;47.830;19.026;2022-12-17T04:26:47;75.65;;;29.45;;
52984;SDS011;40499;47.830;19.026;2022-12-17T04:29:31;71.30;;;27.50;;
52984;SDS011;40499;47.830;19.026;2022-12-17T04:32:15;73.75;;;36.47;;
52984;SDS011;40499;47.830;19.026;2022-12-17T04:34:59;71.15;;;30.95;;
52984;SDS011;40499;47.830;19.026;2022-12-17T04:37:43;48.47;;;21.58;;
52984;SDS011;40499;47.830;19.026;2022-12-17T04:40:27;81.20;;;30.17;;
52984;SDS011;40499;47.830;19.026;2022-12-17T04:43:11;72.22;;;30.55;;
52984;SDS011;40499;47.830;19.026;2022-12-17T04:45:56;80.57;;;29.77;;
52984;SDS011;40499;47.830;19.026;2022-12-17T04:48:39;62.20;;;31.48;;
52984;SDS011;40499;47.830;19.026;2022-12-17T04:51:23;62.53;;;30.25;;
52984;SDS011;40499;47.830;19.026;2022-12-17T04:54:07;80.82;;;29.98;;
52984;SDS011;40499;47.830;19.026;2022-12-17T04:56:51;62.17;;;28.88;;
52984;SDS011;40499;47.830;19.026;2022-12-17T04:59:35;45.05;;;20.70;;
52984;SDS011;40499;47.830;19.026;2022-12-17T05:02:19;59.33;;;21.80;;
52984;SDS011;40499;47.830;19.026;2022-12-17T05:05:03;73.53;;;28.15;;
52984;SDS011;40499;47.830;19.026;2022-12-17T05:07:47;44.67;;;18.95;;
52984;SDS011;40499;47.830;19.026;2022-12-17T05:10:31;84.50;;;31.23;;
52984;SDS011;40499;47.830;19.026;2022-12-17T05:13:15;61.40;;;24.67;;
52984;SDS011;40499;47.830;19.026;2022-12-17T05:15:58;40.67;;;16.63;;
52984;SDS011;40499;47.830;19.026;2022-12-17T05:18:43;54.55;;;23.27;;
52984;SDS011;40499;47.830;19.026;2022-12-17T05:21:26;51.30;;;17.63;;
52984;SDS011;40499;47.830;19.026;2022-12-17T05:24:10;61.70;;;23.60;;
52984;SDS011;40499;47.830;19.026;2022-12-17T05:26:54;59.17;;;24.20;;
52984;SDS011;40499;47.830;19.026;2022-12-17T05:29:38;38.83;;;17.27;;
52984;SDS011;40499;47.830;19.026;2022-12-17T05:32:22;57.80;;;22.52;;
52984;SDS011;40499;47.830;19.026;2022-12-17T05:35:06;25.75;;;11.15;;
52984;SDS011;40499;47.830;19.026;2022-12-17T05:37:50;71.50;;;28.58;;
52984;SDS011;40499;47.830;19.026;2022-12-17T05:40:34;51.88;;;20.80;;
52984;SDS011;40499;47.830;19.026;2022-12-17T05:43:18;62.70;;;25.65;;
52984;SDS011;40499;47.830;19.026;2022-12-17T05:46:02;53.25;;;23.85;;
52984;SDS011;40499;47.830;19.026;2022-12-17T05:48:45;57.17;;;20.52;;
52984;SDS011;40499;47.830;19.026;2022-12-17T05:51:30;67.93;;;24.35;;
52984;SDS011;40499;47.830;19.026;2022-12-17T05:54:13;62.15;;;24.83;;
52984;SDS011;40499;47.830;19.026;2022-12-17T05:56:57;62.08;;;23.45;;
52984;SDS011;40499;47.830;19.026;2022-12-17T05:59:41;60.13;;;24.02;;
52984;SDS011;40499;47.830;19.026;2022-12-17T06:02:25;66.38;;;25.95;;
52984;SDS011;40499;47.830;19.026;2022-12-17T06:05:09;65.40;;;23.23;;
52984;SDS011;40499;47.830;19.026;2022-12-17T06:08:00;59.95;;;23.27;;
52984;SDS011;40499;47.830;19.026;2022-12-17T06:10:44;43.80;;;17.58;;
52984;SDS011;40499;47.830;19.026;2022-12-17T06:13:28;64.68;;;24.80;;
52984;SDS011;40499;47.830;19.026;2022-12-17T06:16:12;41.00;;;17.95;;
52984;SDS011;40499;47.830;19.026;2022-12-17T06:18:56;46.90;;;19.88;;
52984;SDS011;40499;47.830;19.026;2022-12-17T06:21:40;49.83;;;19.58;;
52984;SDS011;40499;47.830;19.026;2022-12-17T06:24:28;59.90;;;25.00;;
52984;SDS011;40499;47.830;19.026;2022-12-17T06:27:12;46.47;;;16.55;;
52984;SDS011;40499;47.830;19.026;2022-12-17T06:29:56;38.03;;;18.17;;
52984;SDS011;40499;47.830;19.026;2022-12-17T06:32:40;34.42;;;15.10;;
52984;SDS011;40499;47.830;19.026;2022-12-17T06:35:24;41.00;;;20.80;;
52984;SDS011;40499;47.830;19.026;2022-12-17T06:38:08;49.33;;;19.98;;
52984;SDS011;40499;47.830;19.026;2022-12-17T06:40:52;43.90;;;18.40;;
52984;SDS011;40499;47.830;19.026;2022-12-17T06:43:36;34.85;;;14.57;;
52984;SDS011;40499;47.830;19.026;2022-12-17T06:46:20;32.35;;;13.93;;
52984;SDS011;40499;47.830;19.026;2022-12-17T06:49:04;55.50;;;22.63;;
52984;SDS011;40499;47.830;19.026;2022-12-17T06:51:48;41.08;;;19.20;;
52984;SDS011;40499;47.830;19.026;2022-12-17T06:54:32;50.75;;;21.30;;
52984;SDS011;40499;47.830;19.026;2022-12-17T06:57:15;37.60;;;16.50;;
52984;SDS011;40499;47.830;19.026;2022-12-17T06:59:59;40.70;;;17.63;;
52984;SDS011;40499;47.830;19.026;2022-12-17T07:02:43;41.63;;;17.65;;
52984;SDS011;40499;47.830;19.026;2022-12-17T07:05:27;58.85;;;22.90;;
52984;SDS011;40499;47.830;19.026;2022-12-17T07:08:11;36.53;;;17.48;;
52984;SDS011;40499;47.830;19.026;2022-12-17T07:10:59;51.45;;;22.35;;
52984;SDS011;40499;47.830;19.026;2022-12-17T07:13:43;44.33;;;16.90;;
52984;SDS011;40499;47.830;19.026;2022-12-17T07:16:27;36.92;;;15.23;;
52984;SDS011;40499;47.830;19.026;2022-12-17T07:19:11;47.83;;;19.70;;
52984;SDS011;40499;47.830;19.026;2022-12-17T07:21:55;46.83;;;17.90;;
52984;SDS011;40499;47.830;19.026;2022-12-17T07:24:38;28.40;;;14.32;;
52984;SDS011;40499;47.830;19.026;2022-12-17T07:27:22;44.03;;;20.90;;
52984;SDS011;40499;47.830;19.026;2022-12-17T07:30:06;40.55;;;18.27;;
52984;SDS011;40499;47.830;19.026;2022-12-17T07:33:00;37.83;;;16.40;;
52984;SDS011;40499;47.830;19.026;2022-12-17T07:35:43;25.88;;;11.85;;
52984;SDS011;40499;47.830;19.026;2022-12-17T07:38:27;40.38;;;18.48;;
52984;SDS011;40499;47.830;19.026;2022-12-17T07:41:11;58.28;;;20.60;;
52984;SDS011;40499;47.830;19.026;2022-12-17T07:43:55;53.95;;;20.67;;
52984;SDS011;40499;47.830;19.026;2022-12-17T07:46:39;62.03;;;23.27;;
52984;SDS011;40499;47.830;19.026;2022-12-17T07:49:23;52.25;;;23.05;;
52984;SDS011;40499;47.830;19.026;2022-12-17T07:52:07;41.83;;;16.23;;
52984;SDS011;40499;47.830;19.026;2022-12-17T07:54:51;40.15;;;18.15;;
52984;SDS011;40499;47.830;19.026;2022-12-17T07:57:35;51.88;;;20.88;;
52984;SDS011;40499;47.830;19.026;2022-12-17T08:00:19;47.65;;;20.00;;
52984;SDS011;40499;47.830;19.026;2022-12-17T08:03:03;32.63;;;15.43;;
52984;SDS011;40499;47.830;19.026;2022-12-17T08:05:46;45.75;;;19.30;;
52984;SDS011;40499;47.830;19.026;2022-12-17T08:08:30;52.40;;;19.58;;
52984;SDS011;40499;47.830;19.026;2022-12-17T08:11:14;41.05;;;16.45;;
52984;SDS011;40499;47.830;19.026;2022-12-17T08:13:58;43.08;;;18.40;;
52984;SDS011;40499;47.830;19.026;2022-12-17T08:16:43;58.72;;;22.58;;
52984;SDS011;40499;47.830;19.026;2022-12-17T08:19:27;44.78;;;18.25;;
52984;SDS011;40499;47.830;19.026;2022-12-17T08:22:18;29.25;;;13.55;;
52984;SDS011;40499;47.830;19.026;2022-12-17T08:25:02;35.65;;;15.77;;
52984;SDS011;40499;47.830;19.026;2022-12-17T08:27:46;40.45;;;17.67;;
52984;SDS011;40499;47.830;19.026;2022-12-17T08:30:30;31.23;;;13.20;;
52984;SDS011;40499;47.830;19.026;2022-12-17T08:33:14;55.38;;;20.42;;
52984;SDS011;40499;47.830;19.026;2022-12-17T08:35:58;32.15;;;15.52;;
52984;SDS011;40499;47.830;19.026;2022-12-17T08:38:42;50.05;;;21.08;;
52984;SDS011;40499;47.830;19.026;2022-12-17T08:41:26;59.22;;;23.33;;
52984;SDS011;40499;47.830;19.026;2022-12-17T08:44:10;56.83;;;23.52;;
52984;SDS011;40499;47.830;19.026;2022-12-17T08:46:54;46.25;;;17.70;;
52984;SDS011;40499;47.830;19.026;2022-12-17T08:49:38;40.33;;;15.05;;
52984;SDS011;40499;47.830;19.026;2022-12-17T08:52:22;62.13;;;24.05;;
52984;SDS011;40499;47.830;19.026;2022-12-17T08:55:06;51.90;;;19.00;;
52984;SDS011;40499;47.830;19.026;2022-12-17T08:57:53;51.40;;;21.00;;
52984;SDS011;40499;47.830;19.026;2022-12-17T09:00:37;39.65;;;15.52;;
52984;SDS011;40499;47.830;19.026;2022-12-17T09:03:21;61.42;;;23.73;;
52984;SDS011;40499;47.830;19.026;2022-12-17T09:06:05;59.17;;;22.40;;
52984;SDS011;40499;47.830;19.026;2022-12-17T09:08:49;17.27;;;7.45;;
52984;SDS011;40499;47.830;19.026;2022-12-17T09:11:33;52.13;;;19.50;;
52984;SDS011;40499;47.830;19.026;2022-12-17T09:14:17;57.83;;;22.52;;
52984;SDS011;40499;47.830;19.026;2022-12-17T09:17:05;42.38;;;15.65;;
52984;SDS011;40499;47.830;19.026;2022-12-17T09:19:49;56.33;;;21.90;;
52984;SDS011;40499;47.830;19.026;2022-12-17T09:22:33;49.78;;;21.05;;
52984;SDS011;40499;47.830;19.026;2022-12-17T09:25:17;36.25;;;16.13;;
52984;SDS011;40499;47.830;19.026;2022-12-17T09:28:01;41.38;;;16.92;;
52984;SDS011;40499;47.830;19.026;2022-12-17T09:30:45;30.30;;;13.00;;
52984;SDS011;40499;47.830;19.026;2022-12-17T09:33:29;17.88;;;9.23;;
52984;SDS011;40499;47.830;19.026;2022-12-17T09:36:13;59.88;;;24.98;;
52984;SDS011;40499;47.830;19.026;2022-12-17T09:38:57;44.75;;;18.10;;
52984;SDS011;40499;47.830;19.026;2022-12-17T09:44:39;51.40;;;23.25;;
52984;SDS011;40499;47.830;19.026;2022-12-17T09:50:14;50.92;;;22.20;;
52984;SDS011;40499;47.830;19.026;2022-12-17T09:52:59;44.90;;;16.98;;
52984;SDS011;40499;47.830;19.026;2022-12-17T09:55:52;46.00;;;18.60;;
52984;SDS011;40499;47.830;19.026;2022-12-17T09:58:40;44.58;;;22.40;;
52984;SDS011;40499;47.830;19.026;2022-12-17T10:01:25;54.97;;;19.08;;
52984;SDS011;40499;47.830;19.026;2022-12-17T10:04:13;47.85;;;20.25;;
52984;SDS011;40499;47.830;19.026;2022-12-17T10:06:59;29.45;;;15.38;;
52984;SDS011;40499;47.830;19.026;2022-12-17T10:09:43;47.85;;;18.70;;
52984;SDS011;40499;47.830;19.026;2022-12-17T10:12:26;47.72;;;24.58;;
52984;SDS011;40499;47.830;19.026;2022-12-17T10:15:14;54.72;;;20.25;;
52984;SDS011;40499;47.830;19.026;2022-12-17T10:18:03;55.70;;;22.30;;
52984;SDS011;40499;47.830;19.026;2022-12-17T10:20:53;39.15;;;17.13;;
52984;SDS011;40499;47.830;19.026;2022-12-17T10:23:38;64.88;;;21.92;;
52984;SDS011;40499;47.830;19.026;2022-12-17T10:26:24;39.72;;;18.98;;
52984;SDS011;40499;47.830;19.026;2022-12-17T10:29:19;45.70;;;18.05;;
52984;SDS011;40499;47.830;19.026;2022-12-17T10:34:53;52.38;;;21.45;;
52984;SDS011;40499;47.830;19.026;2022-12-17T10:37:37;63.70;;;22.92;;
52984;SDS011;40499;47.830;19.026;2022-12-17T10:40:28;59.70;;;23.50;;
52984;SDS011;40499;47.830;19.026;2022-12-17T10:46:07;63.55;;;24.05;;
52984;SDS011;40499;47.830;19.026;2022-12-17T10:48:51;48.88;;;20.17;;
52984;SDS011;40499;47.830;19.026;2022-12-17T10:51:45;39.30;;;17.67;;
52984;SDS011;40499;47.830;19.026;2022-12-17T10:54:30;52.08;;;23.77;;
52984;SDS011;40499;47.830;19.026;2022-12-17T11:00:00;32.90;;;14.48;;
52984;SDS011;40499;47.830;19.026;2022-12-17T11:02:45;69.85;;;25.73;;
52984;SDS011;40499;47.830;19.026;2022-12-17T11:05:33;64.22;;;23.73;;
52984;SDS011;40499;47.830;19.026;2022-12-17T11:08:17;44.80;;;19.63;;
52984;SDS011;40499;47.830;19.026;2022-12-17T11:11:02;53.83;;;19.77;;
52984;SDS011;40499;47.830;19.026;2022-12-17T11:13:47;48.47;;;22.30;;
52984;SDS011;40499;47.830;19.026;2022-12-17T11:16:43;31.57;;;14.50;;
52984;SDS011;40499;47.830;19.026;2022-12-17T11:19:54;45.90;;;18.92;;
52984;SDS011;40499;47.830;19.026;2022-12-17T11:22:41;39.03;;;18.38;;
52984;SDS011;40499;47.830;19.026;2022-12-17T11:28:26;51.30;;;22.17;;
52984;SDS011;40499;47.830;19.026;2022-12-17T11:31:21;44.83;;;17.85;;
52984;SDS011;40499;47.830;19.026;2022-12-17T11:34:13;54.65;;;20.20;;
52984;SDS011;40499;47.830;19.026;2022-12-17T11:39:51;41.20;;;17.23;;
52984;SDS011;40499;47.830;19.026;2022-12-17T11:42:46;33.80;;;14.82;;
52984;SDS011;40499;47.830;19.026;2022-12-17T11:45:36;61.83;;;23.20;;
52984;SDS011;40499;47.830;19.026;2022-12-17T11:51:50;61.38;;;25.38;;
52984;SDS011;40499;47.830;19.026;2022-12-17T11:54:39;41.90;;;16.35;;
52984;SDS011;40499;47.830;19.026;2022-12-17T12:00:23;48.55;;;20.05;;
52984;SDS011;40499;47.830;19.026;2022-12-17T12:03:13;42.63;;;16.77;;
52984;SDS011;40499;47.830;19.026;2022-12-17T12:05:59;31.63;;;12.35;;
52984;SDS011;40499;47.830;19.026;2022-12-17T12:08:54;35.65;;;15.82;;
52984;SDS011;40499;47.830;19.026;2022-12-17T12:14:34;49.10;;;19.10;;
52984;SDS011;40499;47.830;19.026;2022-12-17T12:17:31;42.22;;;18.90;;
52984;SDS011;40499;47.830;19.026;2022-12-17T12:23:23;49.80;;;22.38;;
52984;SDS011;40499;47.830;19.026;2022-12-17T12:26:13;48.00;;;22.67;;
52984;SDS011;40499;47.830;19.026;2022-12-17T12:34:44;50.30;;;19.60;;
52984;SDS011;40499;47.830;19.026;2022-12-17T12:37:28;45.38;;;18.40;;
52984;SDS011;40499;47.830;19.026;2022-12-17T12:42:59;35.50;;;15.57;;
52984;SDS011;40499;47.830;19.026;2022-12-17T12:45:53;26.40;;;13.25;;
52984;SDS011;40499;47.830;19.026;2022-12-17T12:51:26;26.67;;;13.77;;
52984;SDS011;40499;47.830;19.026;2022-12-17T12:54:28;50.05;;;18.50;;
52984;SDS011;40499;47.830;19.026;2022-12-17T13:00:28;42.47;;;17.08;;
52984;SDS011;40499;47.830;19.026;2022-12-17T13:06:00;41.53;;;16.02;;
52984;SDS011;40499;47.830;19.026;2022-12-17T13:08:26;55.35;;;20.02;;
52984;SDS011;40499;47.830;19.026;2022-12-17T13:10:51;43.92;;;16.02;;
52984;SDS011;40499;47.830;19.026;2022-12-17T13:15:45;58.50;;;19.60;;
52984;SDS011;40499;47.830;19.026;2022-12-17T13:18:17;48.05;;;19.70;;
52984;SDS011;40499;47.830;19.026;2022-12-17T13:20:43;52.38;;;20.25;;
52984;SDS011;40499;47.830;19.026;2022-12-17T13:23:27;35.65;;;14.98;;
52984;SDS011;40499;47.830;19.026;2022-12-17T13:26:53;30.23;;;12.43;;
52984;SDS011;40499;47.830;19.026;2022-12-17T13:28:58;43.60;;;18.48;;
52984;SDS011;40499;47.830;19.026;2022-12-17T13:31:31;32.17;;;13.15;;
52984;SDS011;40499;47.830;19.026;2022-12-17T13:34:12;39.38;;;16.58;;
52984;SDS011;40499;47.830;19.026;2022-12-17T13:36:42;41.40;;;16.05;;
52984;SDS011;40499;47.830;19.026;2022-12-17T13:41:50;35.42;;;13.95;;
52984;SDS011;40499;47.830;19.026;2022-12-17T13:44:19;41.88;;;17.15;;
52984;SDS011;40499;47.830;19.026;2022-12-17T13:46:45;28.75;;;12.85;;
52984;SDS011;40499;47.830;19.026;2022-12-17T13:49:18;40.22;;;16.60;;
52984;SDS011;40499;47.830;19.026;2022-12-17T13:51:44;43.90;;;22.45;;
52984;SDS011;40499;47.830;19.026;2022-12-17T13:54:17;53.92;;;25.67;;
52984;SDS011;40499;47.830;19.026;2022-12-17T13:56:43;47.15;;;23.65;;
52984;SDS011;40499;47.830;19.026;2022-12-17T13:59:19;53.15;;;23.63;;
52984;SDS011;40499;47.830;19.026;2022-12-17T14:01:49;48.92;;;19.45;;
52984;SDS011;40499;47.830;19.026;2022-12-17T14:04:25;58.13;;;21.92;;
52984;SDS011;40499;47.830;19.026;2022-12-17T14:06:51;31.33;;;13.73;;
52984;SDS011;40499;47.830;19.026;2022-12-17T14:09:17;47.08;;;21.92;;
52984;SDS011;40499;47.830;19.026;2022-12-17T14:11:43;32.88;;;16.88;;
52984;SDS011;40499;47.830;19.026;2022-12-17T14:14:31;27.48;;;10.93;;
52984;SDS011;40499;47.830;19.026;2022-12-17T14:16:57;44.78;;;18.63;;
52984;SDS011;40499;47.830;19.026;2022-12-17T14:19:22;54.85;;;23.13;;
52984;SDS011;40499;47.830;19.026;2022-12-17T14:21:48;29.90;;;12.30;;
52984;SDS011;40499;47.830;19.026;2022-12-17T14:24:14;45.13;;;22.25;;
52984;SDS011;40499;47.830;19.026;2022-12-17T14:26:50;32.67;;;15.18;;
52984;SDS011;40499;47.830;19.026;2022-12-17T14:29:20;63.15;;;31.45;;
52984;SDS011;40499;47.830;19.026;2022-12-17T14:31:56;56.40;;;20.52;;
52984;SDS011;40499;47.830;19.026;2022-12-17T14:34:22;51.35;;;22.48;;
52984;SDS011;40499;47.830;19.026;2022-12-17T14:36:52;53.90;;;24.23;;
52984;SDS011;40499;47.830;19.026;2022-12-17T14:41:43;62.47;;;27.58;;
52984;SDS011;40499;47.830;19.026;2022-12-17T14:44:27;33.60;;;17.40;;
52984;SDS011;40499;47.830;19.026;2022-12-17T14:47:05;40.08;;;17.73;;
52984;SDS011;40499;47.830;19.026;2022-12-17T14:49:31;41.08;;;20.08;;
52984;SDS011;40499;47.830;19.026;2022-12-17T14:51:56;37.90;;;17.05;;
52984;SDS011;40499;47.830;19.026;2022-12-17T14:56:54;59.55;;;27.35;;
52984;SDS011;40499;47.830;19.026;2022-12-17T14:59:40;36.83;;;17.00;;
52984;SDS011;40499;47.830;19.026;2022-12-17T15:04:32;40.03;;;17.25;;
52984;SDS011;40499;47.830;19.026;2022-12-17T15:06:59;51.63;;;22.52;;
52984;SDS011;40499;47.830;19.026;2022-12-17T15:09:25;59.80;;;21.95;;
52984;SDS011;40499;47.830;19.026;2022-12-17T15:11:50;36.30;;;14.73;;
52984;SDS011;40499;47.830;19.026;2022-12-17T15:14:15;55.72;;;20.70;;
52984;SDS011;40499;47.830;19.026;2022-12-17T15:16:41;52.47;;;19.55;;
52984;SDS011;40499;47.830;19.026;2022-12-17T15:19:06;44.40;;;18.20;;
52984;SDS011;40499;47.830;19.026;2022-12-17T15:21:31;52.97;;;25.48;;
52984;SDS011;40499;47.830;19.026;2022-12-17T15:23:57;45.38;;;16.60;;
52984;SDS011;40499;47.830;19.026;2022-12-17T15:26:22;54.35;;;20.92;;
52984;SDS011;40499;47.830;19.026;2022-12-17T15:28:47;33.03;;;15.88;;
52984;SDS011;40499;47.830;19.026;2022-12-17T15:31:13;63.00;;;24.13;;
52984;SDS011;40499;47.830;19.026;2022-12-17T15:33:39;30.92;;;14.38;;
52984;SDS011;40499;47.830;19.026;2022-12-17T15:36:04;33.92;;;12.73;;
52984;SDS011;40499;47.830;19.026;2022-12-17T15:38:30;32.08;;;16.45;;
52984;SDS011;40499;47.830;19.026;2022-12-17T15:40:55;40.08;;;15.77;;
52984;SDS011;40499;47.830;19.026;2022-12-17T15:43:23;67.10;;;25.35;;
52984;SDS011;40499;47.830;19.026;2022-12-17T15:45:49;61.60;;;23.02;;
52984;SDS011;40499;47.830;19.026;2022-12-17T15:48:15;39.53;;;17.67;;
52984;SDS011;40499;47.830;19.026;2022-12-17T15:50:41;48.75;;;20.63;;
52984;SDS011;40499;47.830;19.026;2022-12-17T15:53:06;40.10;;;16.88;;
52984;SDS011;40499;47.830;19.026;2022-12-17T15:55:33;46.80;;;18.80;;
52984;SDS011;40499;47.830;19.026;2022-12-17T15:57:58;44.17;;;18.95;;
52984;SDS011;40499;47.830;19.026;2022-12-17T16:00:23;67.40;;;23.50;;
52984;SDS011;40499;47.830;19.026;2022-12-17T16:02:49;72.88;;;26.23;;
52984;SDS011;40499;47.830;19.026;2022-12-17T16:05:14;32.97;;;13.75;;
52984;SDS011;40499;47.830;19.026;2022-12-17T16:07:39;37.08;;;15.75;;
52984;SDS011;40499;47.830;19.026;2022-12-17T16:10:07;68.15;;;24.98;;
52984;SDS011;40499;47.830;19.026;2022-12-17T16:12:32;72.70;;;26.77;;
52984;SDS011;40499;47.830;19.026;2022-12-17T16:14:58;40.72;;;14.90;;
52984;SDS011;40499;47.830;19.026;2022-12-17T16:17:23;52.53;;;17.27;;
52984;SDS011;40499;47.830;19.026;2022-12-17T16:19:48;33.30;;;14.57;;
52984;SDS011;40499;47.830;19.026;2022-12-17T16:22:14;31.33;;;13.30;;
52984;SDS011;40499;47.830;19.026;2022-12-17T16:24:39;25.50;;;9.93;;
52984;SDS011;40499;47.830;19.026;2022-12-17T16:27:05;35.97;;;12.57;;
52984;SDS011;40499;47.830;19.026;2022-12-17T16:29:31;34.38;;;12.65;;
52984;SDS011;40499;47.830;19.026;2022-12-17T16:31:56;48.22;;;20.67;;
52984;SDS011;40499;47.830;19.026;2022-12-17T16:34:21;46.08;;;18.52;;
52984;SDS011;40499;47.830;19.026;2022-12-17T16:36:47;27.08;;;11.88;;
52984;SDS011;40499;47.830;19.026;2022-12-17T16:39:16;50.33;;;17.52;;
52984;SDS011;40499;47.830;19.026;2022-12-17T16:41:41;38.10;;;16.48;;